Time;durP1;ratioP1;P1;durP2;ratioP2;P2;SDS_P1;SDS_P2;PMS_P1;PMS_P2;Temp;Humidity;BMP_temperature;BMP_pressure;BME280_temperature;BME280_humidity;BME280_pressure;Samples;Min_cycle;Max_cycle;Signal;HPM_P1;HPM_P2
2023/04/19 00:01:41;;;;;;;2.60;2.10;;;16.00;55.10;;;;;;5129302;27;45460;-74
2023/04/19 00:04:08;;;;;;;2.45;1.90;;;16.00;55.60;;;;;;5129397;27;45248;-74
2023/04/19 00:06:36;;;;;;;2.03;1.88;;;15.90;55.00;;;;;;5129504;27;45302;-75
2023/04/19 00:09:03;;;;;;;2.40;1.90;;;15.90;55.10;;;;;;5129547;27;45406;-75
2023/04/19 00:11:30;;;;;;;2.60;2.20;;;15.90;55.00;;;;;;5128973;27;45908;-75
2023/04/19 00:13:57;;;;;;;2.42;1.95;;;15.90;55.00;;;;;;5129238;27;45284;-74
2023/04/19 00:16:24;;;;;;;3.10;2.15;;;15.90;55.10;;;;;;5129366;27;45365;-74
2023/04/19 00:18:50;;;;;;;2.00;1.77;;;15.90;55.10;;;;;;5129304;27;45519;-74
2023/04/19 00:21:17;;;;;;;2.45;1.98;;;15.80;55.00;;;;;;5128862;27;45523;-74
2023/04/19 00:23:45;;;;;;;2.15;1.90;;;15.80;55.00;;;;;;5129077;27;45430;-74
2023/04/19 00:26:14;;;;;;;2.10;1.90;;;15.80;55.00;;;;;;5128470;27;45228;-74
2023/04/19 00:28:41;;;;;;;2.20;2.00;;;15.80;55.00;;;;;;5129279;27;45512;-75
2023/04/19 00:31:08;;;;;;;2.53;2.13;;;15.80;55.00;;;;;;5128773;27;45457;-74
2023/04/19 00:33:34;;;;;;;2.55;2.13;;;15.80;55.00;;;;;;5128919;27;45341;-74
2023/04/19 00:36:01;;;;;;;2.20;1.85;;;15.70;55.00;;;;;;5126268;27;45285;-75
2023/04/19 00:38:28;;;;;;;2.50;1.95;;;15.70;55.10;;;;;;5129129;27;45569;-74
2023/04/19 00:40:57;;;;;;;2.53;1.80;;;15.70;55.60;;;;;;5128726;27;45472;-74
2023/04/19 00:43:24;;;;;;;2.05;1.85;;;15.70;55.10;;;;;;5128728;27;45332;-74
2023/04/19 00:45:51;;;;;;;1.75;1.58;;;15.70;55.10;;;;;;5128673;27;45218;-74
2023/04/19 00:48:18;;;;;;;2.22;1.98;;;15.60;55.00;;;;;;5128902;27;45392;-75
2023/04/19 00:50:44;;;;;;;2.53;2.10;;;15.60;55.10;;;;;;5128557;27;45484;-74
2023/04/19 00:53:11;;;;;;;2.78;1.90;;;15.60;55.20;;;;;;5128630;27;45310;-74
2023/04/19 00:55:38;;;;;;;1.85;1.73;;;15.60;55.20;;;;;;5128740;27;45437;-74
2023/04/19 00:58:07;;;;;;;1.92;1.75;;;15.60;55.20;;;;;;5128777;27;45295;-74
2023/04/19 01:00:34;;;;;;;2.40;1.98;;;15.60;55.10;;;;;;5128354;27;45495;-74
2023/04/19 01:03:01;;;;;;;2.17;1.92;;;15.50;55.20;;;;;;5128422;27;45415;-74
2023/04/19 01:05:28;;;;;;;2.55;2.25;;;15.50;55.20;;;;;;5128584;27;45430;-74
2023/04/19 01:07:55;;;;;;;2.72;2.17;;;15.50;55.20;;;;;;5128806;27;45313;-74
2023/04/19 01:10:21;;;;;;;2.35;1.92;;;15.50;55.10;;;;;;5128045;27;46617;-74
2023/04/19 01:12:48;;;;;;;2.05;1.80;;;15.50;55.20;;;;;;5128308;27;45292;-74
2023/04/19 01:15:16;;;;;;;2.15;2.05;;;15.40;55.20;;;;;;5128545;27;45279;-73
2023/04/19 01:17:43;;;;;;;2.38;2.08;;;15.40;55.20;;;;;;5128510;27;45389;-74
2023/04/19 01:20:12;;;;;;;2.60;2.05;;;15.40;55.20;;;;;;5128034;27;46759;-75
2023/04/19 01:22:40;;;;;;;1.88;1.77;;;15.40;55.20;;;;;;5128151;27;45344;-75
2023/04/19 01:25:08;;;;;;;1.60;1.50;;;15.40;55.20;;;;;;5128258;27;45364;-74
2023/04/19 01:27:35;;;;;;;2.30;2.10;;;15.30;55.20;;;;;;5128298;27;45556;-75
2023/04/19 01:30:02;;;;;;;2.55;1.63;;;15.30;55.30;;;;;;5127633;27;46383;-74
2023/04/19 01:32:29;;;;;;;2.05;1.85;;;15.30;55.30;;;;;;5127967;27;45354;-74
2023/04/19 01:34:55;;;;;;;2.33;2.00;;;15.30;55.20;;;;;;5128171;27;45158;-74
2023/04/19 01:37:22;;;;;;;1.70;1.60;;;15.30;55.30;;;;;;5127129;27;45373;-74
2023/04/19 01:39:50;;;;;;;2.75;1.98;;;15.30;55.30;;;;;;5127610;27;47290;-74
2023/04/19 01:42:17;;;;;;;2.42;2.10;;;15.20;55.20;;;;;;5127865;27;45343;-74
2023/04/19 01:44:44;;;;;;;2.28;1.73;;;15.30;55.10;;;;;;5127630;27;45331;-75
2023/04/19 01:47:11;;;;;;;1.65;1.55;;;15.30;55.00;;;;;;5128385;27;45346;-74
2023/04/19 01:49:38;;;;;;;2.15;1.70;;;15.30;54.90;;;;;;5124774;27;46271;-75
2023/04/19 01:52:05;;;;;;;2.05;1.83;;;15.30;54.90;;;;;;5127576;27;45435;-74
2023/04/19 01:54:32;;;;;;;2.05;1.85;;;15.20;54.90;;;;;;5125776;27;45366;-74
2023/04/19 01:57:00;;;;;;;2.13;1.80;;;15.30;54.90;;;;;;5127934;27;45271;-75
2023/04/19 01:59:27;;;;;;;1.75;1.65;;;15.20;54.90;;;;;;5127283;27;46272;-74
2023/04/19 02:01:53;;;;;;;2.58;1.70;;;15.20;55.00;;;;;;5127458;27;45335;-75
2023/04/19 02:04:20;;;;;;;2.10;1.90;;;15.20;55.00;;;;;;5127577;27;45454;-74
2023/04/19 02:06:47;;;;;;;2.00;1.80;;;15.20;55.00;;;;;;5127671;27;45330;-74
2023/04/19 02:09:14;;;;;;;1.90;1.80;;;15.20;55.40;;;;;;5127336;27;45258;-74
2023/04/19 02:11:41;;;;;;;2.28;1.90;;;15.20;55.00;;;;;;5127226;27;45394;-75
2023/04/19 02:14:09;;;;;;;2.30;2.05;;;15.10;54.90;;;;;;5127307;27;45303;-74
2023/04/19 02:16:36;;;;;;;2.20;2.00;;;15.10;54.80;;;;;;5127735;27;45249;-76
2023/04/19 02:19:03;;;;;;;1.80;1.70;;;15.10;54.80;;;;;;5126952;27;47319;-76
2023/04/19 02:21:30;;;;;;;2.50;1.90;;;15.10;54.80;;;;;;5127132;27;45348;-76
2023/04/19 02:23:57;;;;;;;2.25;1.90;;;15.10;54.80;;;;;;5127330;27;45413;-76
2023/04/19 02:26:24;;;;;;;1.95;1.67;;;15.00;54.80;;;;;;5127420;27;45421;-76
2023/04/19 02:28:51;;;;;;;1.75;1.63;;;15.10;54.90;;;;;;5127050;27;46895;-75
2023/04/19 02:31:19;;;;;;;2.05;1.85;;;15.10;54.80;;;;;;5126897;27;45332;-75
2023/04/19 02:33:46;;;;;;;1.98;1.60;;;15.10;55.50;;;;;;5127108;27;45352;-76
2023/04/19 02:36:13;;;;;;;1.50;1.40;;;15.00;54.80;;;;;;5127261;27;45608;-75
2023/04/19 02:38:40;;;;;;;2.22;2.03;;;15.00;55.40;;;;;;5126725;27;46305;-76
2023/04/19 02:41:07;;;;;;;3.22;2.08;;;15.00;54.80;;;;;;5126846;27;45299;-75
2023/04/19 02:43:34;;;;;;;1.92;1.77;;;15.00;55.50;;;;;;5127028;27;45315;-76
2023/04/19 02:46:01;;;;;;;2.67;1.80;;;15.00;54.90;;;;;;5126888;27;45342;-76
2023/04/19 02:48:29;;;;;;;2.20;2.00;;;15.00;54.90;;;;;;5126183;27;45361;-75
2023/04/19 02:50:56;;;;;;;2.15;1.95;;;15.00;54.80;;;;;;5126608;27;45313;-76
2023/04/19 02:53:23;;;;;;;2.00;1.77;;;15.00;54.80;;;;;;5126783;27;45273;-74
2023/04/19 02:55:49;;;;;;;1.80;1.70;;;14.90;54.70;;;;;;5127082;27;45208;-76
2023/04/19 02:58:16;;;;;;;2.17;1.95;;;15.00;54.80;;;;;;5126562;27;47329;-75
2023/04/19 03:00:43;;;;;;;2.35;1.77;;;14.90;54.80;;;;;;5125637;27;45443;-75
2023/04/19 03:03:10;;;;;;;2.53;1.95;;;14.90;54.70;;;;;;5126778;27;45249;-76
2023/04/19 03:05:38;;;;;;;2.58;1.75;;;14.90;54.70;;;;;;5126965;27;45294;-75
2023/04/19 03:08:05;;;;;;;1.88;1.67;;;14.90;54.70;;;;;;5126462;27;47571;-75
2023/04/19 03:10:32;;;;;;;2.30;2.10;;;14.90;54.70;;;;;;5126439;27;45340;-75
2023/04/19 03:12:58;;;;;;;1.80;1.65;;;14.90;54.80;;;;;;5126429;27;45335;-76
2023/04/19 03:15:25;;;;;;;2.45;1.90;;;14.90;54.70;;;;;;5126610;27;45320;-75
2023/04/19 03:17:52;;;;;;;1.55;1.45;;;14.80;54.70;;;;;;5125948;27;46433;-75
2023/04/19 03:20:19;;;;;;;1.90;1.70;;;14.80;54.70;;;;;;5126156;27;45276;-75
2023/04/19 03:22:48;;;;;;;2.67;1.88;;;14.80;54.70;;;;;;5126529;27;45325;-75
2023/04/19 03:25:14;;;;;;;2.28;1.63;;;14.80;54.70;;;;;;5126685;27;45394;-75
2023/04/19 03:27:44;;;;;;;2.25;1.80;;;14.80;54.70;;;;;;5126451;27;45470;-75
2023/04/19 03:30:12;;;;;;;1.80;1.63;;;14.80;54.70;;;;;;5126123;27;45273;-75
2023/04/19 03:32:39;;;;;;;2.60;2.10;;;14.80;54.70;;;;;;5126106;27;45324;-75
2023/04/19 03:35:06;;;;;;;1.90;1.67;;;14.80;54.70;;;;;;5126490;27;45493;-75
2023/04/19 03:37:33;;;;;;;2.05;1.60;;;14.70;54.70;;;;;;5126120;27;45305;-76
2023/04/19 03:40:02;;;;;;;2.10;1.90;;;14.70;54.60;;;;;;5125949;27;45246;-76
2023/04/19 03:42:29;;;;;;;1.67;1.50;;;14.70;54.60;;;;;;5126214;27;45319;-76
2023/04/19 03:44:56;;;;;;;2.22;1.88;;;14.70;54.60;;;;;;5126034;27;45267;-75
2023/04/19 03:47:23;;;;;;;2.42;2.10;;;14.70;54.70;;;;;;5125807;27;46355;-75
2023/04/19 03:49:50;;;;;;;2.10;1.80;;;14.70;54.70;;;;;;5126031;27;45336;-75
2023/04/19 03:52:17;;;;;;;2.25;2.05;;;14.70;54.70;;;;;;5126117;27;45358;-75
2023/04/19 03:54:44;;;;;;;2.42;2.03;;;14.60;54.70;;;;;;5126238;27;45370;-75
2023/04/19 03:57:13;;;;;;;1.88;1.67;;;14.60;54.70;;;;;;5125702;27;45430;-76
2023/04/19 03:59:40;;;;;;;1.90;1.80;;;14.60;54.70;;;;;;5125727;27;45335;-75
2023/04/19 04:02:07;;;;;;;2.67;2.00;;;14.60;54.70;;;;;;5129304;27;45331;-76
2023/04/19 04:04:33;;;;;;;2.42;1.80;;;14.60;54.70;;;;;;5129770;27;45338;-75
2023/04/19 04:07:01;;;;;;;2.30;2.10;;;14.60;54.70;;;;;;5129362;27;46840;-75
2023/04/19 04:09:28;;;;;;;2.17;1.98;;;14.60;54.70;;;;;;5129306;27;45406;-75
2023/04/19 04:11:54;;;;;;;1.88;1.60;;;14.50;54.60;;;;;;5129262;27;45305;-75
2023/04/19 04:14:23;;;;;;;1.80;1.70;;;14.50;54.60;;;;;;5129554;27;45256;-75
2023/04/19 04:16:50;;;;;;;2.08;1.70;;;14.50;54.60;;;;;;5129058;27;46698;-76
2023/04/19 04:19:17;;;;;;;3.88;2.03;;;14.50;54.60;;;;;;5128889;27;45311;-75
2023/04/19 04:21:44;;;;;;;2.67;1.80;;;14.50;54.60;;;;;;5129123;27;45410;-74
2023/04/19 04:24:11;;;;;;;2.03;1.73;;;14.50;54.60;;;;;;5129377;27;45266;-76
2023/04/19 04:26:38;;;;;;;2.53;2.00;;;14.50;54.60;;;;;;5128897;27;47611;-75
2023/04/19 04:29:05;;;;;;;2.22;1.90;;;14.50;54.60;;;;;;5128874;27;45477;-75
2023/04/19 04:31:34;;;;;;;2.25;2.05;;;14.50;54.70;;;;;;5128873;27;45382;-76
2023/04/19 04:34:02;;;;;;;2.47;2.25;;;14.50;54.70;;;;;;5128994;27;45293;-75
2023/04/19 04:36:30;;;;;;;2.53;1.88;;;14.50;54.70;;;;;;5128801;27;45846;-75
2023/04/19 04:38:57;;;;;;;2.10;1.90;;;14.40;54.70;;;;;;5128683;27;45402;-74
2023/04/19 04:41:24;;;;;;;2.17;1.70;;;14.40;54.70;;;;;;5128764;27;45303;-75
2023/04/19 04:43:52;;;;;;;1.98;1.70;;;14.40;54.70;;;;;;5129104;27;45307;-75
2023/04/19 04:46:19;;;;;;;1.58;1.48;;;14.40;54.60;;;;;;5128422;27;45916;-75
2023/04/19 04:48:47;;;;;;;2.33;1.88;;;14.40;54.60;;;;;;5128598;27;45370;-75
2023/04/19 04:51:14;;;;;;;3.00;1.77;;;14.40;54.60;;;;;;5128810;27;45454;-76
2023/04/19 04:53:40;;;;;;;4.82;2.10;;;14.40;54.60;;;;;;5129093;27;45301;-75
2023/04/19 04:56:08;;;;;;;2.10;1.90;;;14.40;54.70;;;;;;5128466;27;46395;-76
2023/04/19 04:58:34;;;;;;;1.70;1.60;;;14.40;54.60;;;;;;5128544;27;45415;-75
2023/04/19 05:01:01;;;;;;;2.10;1.90;;;14.40;54.60;;;;;;5128607;27;45387;-75
2023/04/19 05:03:28;;;;;;;2.40;1.90;;;14.40;54.60;;;;;;5128742;27;45481;-75
2023/04/19 05:05:56;;;;;;;1.85;1.58;;;14.40;54.60;;;;;;5128333;27;46532;-74
2023/04/19 05:08:23;;;;;;;2.10;1.65;;;14.40;54.60;;;;;;5128478;27;45414;-75
2023/04/19 05:10:50;;;;;;;3.75;2.00;;;14.40;54.60;;;;;;5128360;27;45367;-75
2023/04/19 05:13:17;;;;;;;1.77;1.67;;;14.40;54.60;;;;;;5128742;27;45509;-75
2023/04/19 05:15:44;;;;;;;2.38;1.80;;;14.40;54.60;;;;;;5128592;27;45356;-75
2023/04/19 05:18:10;;;;;;;2.20;2.00;;;14.40;54.60;;;;;;5128507;27;45169;-75
2023/04/19 05:20:37;;;;;;;2.60;2.00;;;14.40;54.60;;;;;;5128309;27;45252;-75
2023/04/19 05:23:05;;;;;;;3.60;1.83;;;14.40;54.60;;;;;;5128385;27;45412;-75
2023/04/19 05:25:32;;;;;;;2.33;1.98;;;14.40;54.60;;;;;;5126741;27;45515;-76
2023/04/19 05:27:59;;;;;;;2.45;1.88;;;14.40;54.60;;;;;;5128040;27;45356;-75
2023/04/19 05:30:25;;;;;;;5.45;1.83;;;14.40;54.60;;;;;;5128007;27;45387;-75
2023/04/19 05:32:52;;;;;;;2.47;1.63;;;14.40;54.60;;;;;;5128416;27;45462;-75
2023/04/19 05:35:20;;;;;;;5.18;2.17;;;14.40;54.60;;;;;;5127844;27;45379;-75
2023/04/19 05:37:47;;;;;;;2.05;1.85;;;14.40;54.60;;;;;;5127793;27;45317;-75
2023/04/19 05:40:15;;;;;;;2.28;1.92;;;14.40;54.60;;;;;;5127829;27;45390;-75
2023/04/19 05:42:42;;;;;;;2.00;1.48;;;14.30;54.50;;;;;;5128057;27;45404;-75
2023/04/19 05:45:10;;;;;;;2.55;1.90;;;14.30;54.50;;;;;;5127491;27;46782;-76
2023/04/19 05:47:37;;;;;;;3.20;1.75;;;14.30;54.50;;;;;;5127793;27;45346;-75
2023/04/19 05:50:03;;;;;;;1.90;1.80;;;14.30;54.50;;;;;;5127668;27;45501;-75
2023/04/19 05:52:30;;;;;;;2.28;1.48;;;14.30;54.50;;;;;;5128031;27;45115;-76
2023/04/19 05:54:57;;;;;;;3.22;1.90;;;14.40;55.20;;;;;;5127485;27;47332;-75
2023/04/19 05:57:26;;;;;;;2.45;1.77;;;14.40;54.60;;;;;;5127723;27;45430;-76
2023/04/19 05:59:52;;;;;;;2.17;1.85;;;14.30;54.50;;;;;;5127332;27;45370;-76
2023/04/19 06:02:19;;;;;;;3.80;1.90;;;14.30;54.60;;;;;;5127774;27;45424;-75
2023/04/19 06:04:46;;;;;;;3.22;2.20;;;14.30;54.60;;;;;;5127341;27;48024;-76
2023/04/19 06:07:13;;;;;;;3.47;1.70;;;14.40;54.60;;;;;;5127521;27;45273;-76
2023/04/19 06:09:40;;;;;;;4.90;1.75;;;14.30;54.50;;;;;;5127603;27;45363;-76
2023/04/19 06:12:07;;;;;;;2.53;1.85;;;14.40;54.60;;;;;;5127760;27;45325;-75
2023/04/19 06:14:35;;;;;;;2.53;1.60;;;14.40;54.60;;;;;;5127261;27;46726;-76
2023/04/19 06:17:02;;;;;;;2.78;1.90;;;14.40;54.60;;;;;;5127427;27;45354;-76
2023/04/19 06:19:28;;;;;;;2.45;1.90;;;14.40;54.60;;;;;;5127484;27;45291;-76
2023/04/19 06:21:55;;;;;;;3.47;1.92;;;14.40;54.60;;;;;;5127100;27;45525;-72
2023/04/19 06:24:22;;;;;;;5.65;2.22;;;14.40;54.60;;;;;;5125537;27;45404;-75
2023/04/19 06:26:49;;;;;;;3.60;2.03;;;14.40;54.60;;;;;;5118892;27;45439;-76
2023/04/19 06:29:16;;;;;;;2.90;2.00;;;14.40;54.70;;;;;;5122278;27;45247;-76
2023/04/19 06:31:45;;;;;;;2.95;2.28;;;14.40;54.60;;;;;;5126111;27;45496;-76
2023/04/19 06:34:12;;;;;;;2.30;1.98;;;14.40;54.60;;;;;;5126264;27;45405;-75
2023/04/19 06:36:38;;;;;;;2.47;1.95;;;14.40;54.70;;;;;;5124184;27;45520;-71
2023/04/19 06:39:05;;;;;;;2.28;2.08;;;14.40;55.20;;;;;;5123292;27;45627;-75
2023/04/19 06:41:32;;;;;;;2.38;2.13;;;14.40;54.70;;;;;;5118781;27;45308;-74
2023/04/19 06:43:59;;;;;;;3.05;2.13;;;14.40;54.60;;;;;;5125989;27;45496;-75
2023/04/19 06:46:27;;;;;;;3.75;2.47;;;14.40;54.70;;;;;;5126686;27;45413;-75
2023/04/19 06:48:55;;;;;;;3.67;2.83;;;14.40;54.90;;;;;;5125892;27;45473;-75
2023/04/19 06:51:22;;;;;;;3.83;2.95;;;14.40;55.20;;;;;;5126033;27;45261;-75
2023/04/19 06:53:50;;;;;;;3.30;2.70;;;14.40;55.20;;;;;;5125108;27;46393;-75
2023/04/19 06:56:17;;;;;;;5.63;3.65;;;14.40;55.50;;;;;;5126673;27;45354;-74
2023/04/19 06:58:44;;;;;;;4.03;3.53;;;14.50;56.00;;;;;;5126754;27;45524;-76
2023/04/19 07:01:11;;;;;;;4.00;3.55;;;14.40;56.10;;;;;;5126946;27;45344;-76
2023/04/19 07:03:38;;;;;;;5.32;3.65;;;14.40;56.20;;;;;;5125587;27;46262;-75
2023/04/19 07:06:07;;;;;;;4.57;3.67;;;14.50;56.40;;;;;;5124915;27;45610;-76
2023/04/19 07:08:34;;;;;;;3.85;3.42;;;14.40;56.50;;;;;;5125302;27;45410;-76
2023/04/19 07:11:01;;;;;;;5.38;3.92;;;14.50;56.50;;;;;;5125275;27;45276;-74
2023/04/19 07:13:28;;;;;;;5.63;3.58;;;14.50;57.00;;;;;;5125699;27;45267;-71
2023/04/19 07:15:55;;;;;;;6.10;4.07;;;14.40;56.90;;;;;;5126395;27;45371;-75
2023/04/19 07:18:22;;;;;;;6.20;3.92;;;14.40;56.90;;;;;;5124475;27;45436;-75
2023/04/19 07:20:48;;;;;;;4.72;3.95;;;14.50;57.00;;;;;;5126526;27;45443;-76
2023/04/19 07:23:18;;;;;;;4.90;3.90;;;14.50;57.20;;;;;;5124761;27;46387;-76
2023/04/19 07:25:45;;;;;;;5.95;4.18;;;14.50;57.80;;;;;;5125709;27;45288;-75
2023/04/19 07:28:12;;;;;;;6.22;4.57;;;14.50;57.20;;;;;;5123455;27;45510;-75
2023/04/19 07:30:38;;;;;;;6.18;4.30;;;14.50;57.30;;;;;;5125691;27;45404;-76
2023/04/19 07:33:07;;;;;;;8.10;4.20;;;14.50;57.20;;;;;;5132347;27;46401;-75
2023/04/19 07:35:34;;;;;;;5.25;4.22;;;14.50;57.20;;;;;;5135342;27;45273;-75
2023/04/19 07:38:01;;;;;;;7.55;4.65;;;14.50;57.40;;;;;;5127573;27;45290;-75
2023/04/19 07:40:29;;;;;;;6.13;4.22;;;14.50;57.50;;;;;;5129488;27;45553;-75
2023/04/19 07:42:56;;;;;;;5.28;4.20;;;14.50;57.70;;;;;;5129924;27;45407;-75
2023/04/19 07:45:23;;;;;;;7.72;5.05;;;14.50;57.50;;;;;;5128527;27;45277;-75
2023/04/19 07:47:50;;;;;;;6.32;4.88;;;14.50;57.70;;;;;;5128063;27;45310;-76
2023/04/19 07:50:17;;;;;;;6.43;4.25;;;14.60;57.70;;;;;;5128794;27;45509;-72
2023/04/19 07:52:44;;;;;;;6.50;4.30;;;14.60;57.80;;;;;;5128183;27;46631;-76
2023/04/19 07:55:11;;;;;;;6.53;4.50;;;14.60;57.70;;;;;;5123760;27;45491;-76
2023/04/19 07:57:39;;;;;;;6.00;4.55;;;14.60;57.90;;;;;;5124992;27;45393;-75
2023/04/19 08:00:09;;;;;;;5.63;4.72;;;14.60;57.90;;;;;;5127611;27;45739;-76
2023/04/19 08:02:36;;;;;;;5.15;4.65;;;14.60;57.80;;;;;;5128684;27;47545;-73
2023/04/19 08:05:03;;;;;;;5.90;4.63;;;14.60;57.70;;;;;;5128614;27;45378;-75
2023/04/19 08:07:30;;;;;;;7.63;4.07;;;14.60;58.60;;;;;;5126945;27;45458;-74
2023/04/19 08:09:57;;;;;;;5.93;4.15;;;14.60;57.70;;;;;;5124964;27;45354;-74
2023/04/19 08:12:23;;;;;;;6.88;4.32;;;14.60;57.80;;;;;;5120724;27;46655;-74
2023/04/19 08:14:52;;;;;;;5.80;4.00;;;14.70;57.80;;;;;;5127514;27;45384;-75
2023/04/19 08:17:20;;;;;;;6.03;3.92;;;14.70;57.50;;;;;;5128687;27;45255;-74
2023/04/19 08:19:48;;;;;;;3.63;3.13;;;14.70;57.30;;;;;;5128853;27;45298;-75
2023/04/19 08:22:15;;;;;;;4.50;3.47;;;14.70;57.20;;;;;;5128884;27;46623;-75
2023/04/19 08:24:42;;;;;;;4.85;4.15;;;14.70;57.60;;;;;;5127156;27;45329;-75
2023/04/19 08:27:09;;;;;;;6.03;3.70;;;14.70;57.50;;;;;;5127478;27;45229;-74
2023/04/19 08:29:36;;;;;;;4.35;3.47;;;14.70;57.30;;;;;;5128894;27;45250;-75
2023/04/19 08:32:04;;;;;;;5.18;3.88;;;14.70;57.10;;;;;;5128227;27;45770;-74
2023/04/19 08:34:31;;;;;;;4.10;3.60;;;14.70;57.00;;;;;;5128898;27;45395;-75
2023/04/19 08:36:58;;;;;;;5.32;3.65;;;14.70;57.00;;;;;;5127149;27;45565;-75
2023/04/19 08:39:25;;;;;;;3.85;3.33;;;14.70;56.90;;;;;;5128154;27;45390;-75
2023/04/19 08:41:51;;;;;;;4.85;3.15;;;14.70;56.70;;;;;;5127270;27;46646;-75
2023/04/19 08:44:18;;;;;;;5.75;3.60;;;14.70;56.50;;;;;;5127135;27;45409;-75
2023/04/19 08:46:45;;;;;;;3.40;3.10;;;14.70;56.70;;;;;;5127343;27;45420;-75
2023/04/19 08:49:13;;;;;;;5.03;3.50;;;14.80;56.60;;;;;;5126361;27;45490;-75
2023/04/19 08:51:40;;;;;;;4.18;3.35;;;14.80;56.70;;;;;;5127891;27;45463;-74
2023/04/19 08:54:07;;;;;;;5.80;3.33;;;14.80;56.90;;;;;;5127679;27;45319;-75
2023/04/19 08:56:34;;;;;;;4.60;3.45;;;14.80;57.00;;;;;;5126642;27;45470;-72
2023/04/19 08:59:01;;;;;;;3.58;3.25;;;14.80;56.90;;;;;;5124220;27;45534;-74
2023/04/19 09:01:28;;;;;;;3.78;3.15;;;14.80;56.90;;;;;;5129362;27;46486;-75
2023/04/19 09:03:55;;;;;;;4.45;3.42;;;14.80;57.50;;;;;;5129633;27;46326;-75
2023/04/19 09:06:23;;;;;;;6.70;3.47;;;14.80;57.20;;;;;;5123599;27;45298;-75
2023/04/19 09:08:51;;;;;;;3.63;3.10;;;14.80;56.90;;;;;;5125596;27;45610;-74
2023/04/19 09:11:19;;;;;;;4.20;3.28;;;14.90;56.90;;;;;;5132471;27;45334;-76
2023/04/19 09:13:45;;;;;;;5.30;3.35;;;14.90;56.90;;;;;;5126064;27;45535;-74
2023/04/19 09:16:24;;;;;;;4.15;2.70;;;14.90;56.80;;;;;;5141702;27;45461;-75
2023/04/19 09:18:54;;;;;;;4.60;3.75;;;14.90;56.90;;;;;;5137956;27;45445;-75
2023/04/19 09:21:29;;;;;;;3.70;2.88;;;14.90;57.00;;;;;;5129303;27;46907;-74
2023/04/19 09:23:56;;;;;;;4.20;3.05;;;14.90;56.90;;;;;;5130232;27;45346;-74
2023/04/19 09:26:22;;;;;;;3.95;3.25;;;14.90;56.90;;;;;;5135789;27;45411;-74
2023/04/19 09:28:56;;;;;;;4.45;3.10;;;14.90;56.90;;;;;;5134463;27;45388;-75
2023/04/19 09:31:23;;;;;;;3.53;3.05;;;14.90;56.80;;;;;;5131919;27;46964;-74
2023/04/19 09:33:50;;;;;;;4.35;3.15;;;15.00;56.90;;;;;;5119238;27;45394;-74
2023/04/19 09:36:28;;;;;;;4.70;3.15;;;15.00;57.10;;;;;;5122897;27;45304;-75
2023/04/19 09:38:55;;;;;;;6.15;3.10;;;15.00;57.00;;;;;;5120769;27;45407;-74
2023/04/19 09:41:22;;;;;;;3.65;3.00;;;15.00;56.90;;;;;;5127083;27;45463;-74
2023/04/19 09:43:49;;;;;;;4.28;3.20;;;15.00;57.00;;;;;;5132414;27;45403;-74
2023/04/19 09:46:31;;;;;;;3.35;2.90;;;15.10;57.20;;;;;;5142442;27;45401;-75
2023/04/19 09:49:18;;;;;;;3.78;3.20;;;15.00;56.90;;;;;;5130293;27;45429;-75
2023/04/19 09:51:47;;;;;;;3.53;2.75;;;15.10;56.90;;;;;;5118123;27;46944;-75
2023/04/19 09:54:16;;;;;;;3.28;2.70;;;15.10;57.20;;;;;;5127619;27;45323;-75
2023/04/19 09:56:42;;;;;;;3.90;3.22;;;15.10;57.10;;;;;;5126829;27;45193;-75
2023/04/19 09:59:09;;;;;;;4.60;3.38;;;15.10;57.40;;;;;;5126681;27;45436;-74
2023/04/19 10:01:39;;;;;;;3.30;2.75;;;15.10;57.40;;;;;;5127213;27;45663;-75
2023/04/19 10:04:06;;;;;;;5.22;3.35;;;15.10;57.50;;;;;;5126895;27;45248;-74
2023/04/19 10:06:34;;;;;;;4.75;3.55;;;15.10;57.60;;;;;;5127562;27;45316;-75
2023/04/19 10:09:03;;;;;;;4.22;2.95;;;15.10;57.50;;;;;;5124240;27;45490;-75
2023/04/19 10:11:35;;;;;;;3.58;2.83;;;15.20;57.60;;;;;;5123634;27;46618;-75
2023/04/19 10:14:02;;;;;;;5.13;2.83;;;15.20;57.70;;;;;;5125504;27;45555;-74
2023/04/19 10:16:29;;;;;;;6.50;3.28;;;15.20;57.60;;;;;;5126221;27;45437;-75
2023/04/19 10:18:56;;;;;;;3.40;3.10;;;15.20;57.50;;;;;;5124646;27;45514;-75
2023/04/19 10:21:23;;;;;;;5.88;3.63;;;15.20;57.50;;;;;;5126266;27;45437;-75
2023/04/19 10:23:50;;;;;;;5.63;3.00;;;15.20;58.20;;;;;;5123676;27;45340;-75
2023/04/19 10:26:18;;;;;;;5.18;2.70;;;15.20;57.50;;;;;;5125037;27;45466;-75
2023/04/19 10:28:44;;;;;;;4.68;2.83;;;15.20;57.60;;;;;;5126012;27;45378;-74
2023/04/19 10:31:12;;;;;;;3.20;2.90;;;15.20;57.50;;;;;;5124249;27;48648;-75
2023/04/19 10:33:39;;;;;;;6.03;3.25;;;15.20;57.50;;;;;;5126143;27;45339;-75
2023/04/19 10:36:09;;;;;;;8.63;3.60;;;15.20;57.70;;;;;;5127097;27;45330;-75
2023/04/19 10:38:37;;;;;;;3.95;3.45;;;15.30;57.70;;;;;;5126542;27;45390;-75
2023/04/19 10:41:04;;;;;;;6.78;3.42;;;15.30;57.70;;;;;;5123730;27;46316;-75
2023/04/19 10:43:33;;;;;;;4.95;3.65;;;15.30;57.60;;;;;;5125484;27;45495;-75
2023/04/19 10:46:01;;;;;;;6.18;3.35;;;15.30;57.70;;;;;;5131954;27;45252;-74
2023/04/19 10:48:36;;;;;;;4.97;3.15;;;15.30;58.20;;;;;;5129290;27;45584;-74
2023/04/19 10:51:04;;;;;;;4.70;3.20;;;15.30;57.60;;;;;;5144565;27;48239;-74
2023/04/19 10:53:47;;;;;;;7.10;3.42;;;15.30;58.20;;;;;;5133498;27;45479;-75
2023/04/19 10:56:14;;;;;;;6.05;3.40;;;15.30;57.60;;;;;;5131144;27;45481;-74
2023/04/19 10:59:21;;;;;;;5.20;3.22;;;15.30;57.60;;;;;;5138483;27;45320;-74
2023/04/19 11:01:56;;;;;;;6.35;3.38;;;15.30;57.50;;;;;;5137008;27;47469;-75
2023/04/19 11:04:26;;;;;;;3.40;2.92;;;15.30;57.60;;;;;;5141621;27;45471;-75
2023/04/19 11:07:06;;;;;;;5.13;3.35;;;15.30;57.60;;;;;;5136419;27;45277;-75
2023/04/19 11:09:34;;;;;;;4.47;3.33;;;15.40;57.50;;;;;;5127450;27;45430;-75
2023/04/19 11:12:02;;;;;;;4.55;3.28;;;15.40;57.50;;;;;;5148909;27;45564;-73
2023/04/19 11:14:32;;;;;;;6.00;3.20;;;15.40;57.60;;;;;;5146563;27;45614;-75
2023/04/19 11:17:00;;;;;;;4.07;3.13;;;15.40;57.50;;;;;;5150393;27;45527;-75
2023/04/19 11:19:27;;;;;;;6.68;3.38;;;15.40;57.50;;;;;;5149853;27;45293;-74
2023/04/19 11:21:57;;;;;;;4.13;2.88;;;15.40;57.40;;;;;;5144539;27;46670;-75
2023/04/19 11:24:24;;;;;;;3.45;2.95;;;15.40;57.40;;;;;;5143230;27;45307;-75
2023/04/19 11:26:51;;;;;;;5.25;3.13;;;15.40;57.30;;;;;;5146956;27;45472;-76
2023/04/19 11:29:19;;;;;;;4.18;2.95;;;15.40;57.30;;;;;;5149226;27;45325;-75
2023/04/19 11:31:47;;;;;;;4.13;2.97;;;15.40;57.30;;;;;;5148951;27;45741;-75
2023/04/19 11:34:14;;;;;;;3.88;2.90;;;15.50;57.30;;;;;;5149442;27;45404;-75
2023/04/19 11:36:48;;;;;;;3.47;3.15;;;15.50;57.40;;;;;;5149476;27;45314;-74
2023/04/19 11:39:15;;;;;;;5.97;2.83;;;15.50;57.30;;;;;;5141775;27;45148;-74
2023/04/19 11:41:41;;;;;;;3.22;2.70;;;15.50;57.30;;;;;;5128824;27;45443;-75
2023/04/19 11:44:15;;;;;;;4.85;3.03;;;15.50;57.30;;;;;;5116460;27;45322;-75
2023/04/19 11:46:42;;;;;;;3.78;2.85;;;15.50;57.30;;;;;;5130003;27;45385;-76
2023/04/19 11:49:10;;;;;;;4.30;3.03;;;15.50;57.50;;;;;;5125546;27;45429;-76
2023/04/19 11:51:42;;;;;;;4.45;2.65;;;15.50;57.30;;;;;;5129373;27;45548;-75
2023/04/19 11:54:15;;;;;;;4.20;2.70;;;15.50;57.30;;;;;;5127643;27;45447;-76
2023/04/19 11:57:00;;;;;;;5.20;2.78;;;15.60;57.40;;;;;;5129644;27;45402;-76
2023/04/19 11:59:28;;;;;;;3.80;2.92;;;15.60;57.50;;;;;;5127487;27;45257;-76
2023/04/19 12:01:55;;;;;;;5.57;2.53;;;15.60;57.20;;;;;;5129124;27;46264;-76
2023/04/19 12:04:23;;;;;;;3.13;2.70;;;15.60;57.40;;;;;;5125408;27;45430;-76
2023/04/19 12:06:57;;;;;;;5.78;3.00;;;15.60;57.40;;;;;;5108681;27;45350;-74
2023/04/19 12:09:24;;;;;;;3.65;3.15;;;15.60;57.30;;;;;;5109434;27;45561;-75
2023/04/19 12:11:51;;;;;;;4.47;2.80;;;15.60;57.40;;;;;;5108391;27;45318;-76
2023/04/19 12:14:20;;;;;;;3.97;2.50;;;15.60;57.30;;;;;;5121468;27;45428;-76
2023/04/19 12:16:47;;;;;;;3.75;2.90;;;15.60;57.30;;;;;;5128514;27;45143;-76
2023/04/19 12:19:14;;;;;;;5.45;3.00;;;15.70;57.20;;;;;;5123450;27;45475;-75
2023/04/19 12:21:42;;;;;;;5.15;2.60;;;15.70;57.20;;;;;;5107132;27;46645;-75
2023/04/19 12:24:09;;;;;;;8.82;3.22;;;15.70;57.30;;;;;;5119773;27;45472;-75
2023/04/19 12:26:36;;;;;;;5.10;2.65;;;15.70;57.40;;;;;;5131832;27;45320;-75
2023/04/19 12:29:03;;;;;;;6.25;3.28;;;15.70;57.50;;;;;;5126839;27;45466;-74
2023/04/19 12:31:32;;;;;;;4.38;2.80;;;15.70;57.40;;;;;;5127939;27;45485;-75
2023/04/19 12:33:59;;;;;;;5.45;2.72;;;15.70;57.30;;;;;;5126583;27;45680;-75
2023/04/19 12:36:26;;;;;;;3.33;2.92;;;15.70;57.20;;;;;;5128200;27;45237;-75
2023/04/19 12:38:55;;;;;;;4.75;2.85;;;15.70;57.20;;;;;;5127365;27;45547;-74
2023/04/19 12:41:21;;;;;;;3.50;2.60;;;15.70;57.40;;;;;;5128352;27;47396;-75
2023/04/19 12:43:48;;;;;;;3.35;2.83;;;15.70;57.50;;;;;;5128611;27;45332;-75
2023/04/19 12:46:15;;;;;;;4.03;2.90;;;15.80;57.30;;;;;;5127948;27;45398;-75
2023/04/19 12:48:42;;;;;;;3.72;2.60;;;15.80;57.40;;;;;;5128937;27;45437;-74
2023/04/19 12:51:09;;;;;;;2.92;2.63;;;15.80;57.30;;;;;;5126973;27;45509;-75